sensor_id;sensor_type;location;lat;lon;timestamp;pressure;altitude;pressure_sealevel;temperature;humidity
22550;BME280;11441;57.164;-2.120;2022-12-07T00:01:44;102006.75;;;2.40;100.00
22550;BME280;11441;57.164;-2.120;2022-12-07T00:04:14;102005.66;;;2.41;100.00
22550;BME280;11441;57.164;-2.120;2022-12-07T00:06:43;102002.16;;;2.56;100.00
22550;BME280;11441;57.164;-2.120;2022-12-07T00:09:13;101986.91;;;2.44;100.00
22550;BME280;11441;57.164;-2.120;2022-12-07T00:11:41;101995.34;;;2.43;100.00
22550;BME280;11441;57.164;-2.120;2022-12-07T00:14:44;101997.22;;;2.37;100.00
22550;BME280;11441;57.164;-2.120;2022-12-07T00:17:11;101981.72;;;2.38;100.00
22550;BME280;11441;57.164;-2.120;2022-12-07T00:19:37;101991.81;;;2.48;100.00
22550;BME280;11441;57.164;-2.120;2022-12-07T00:22:04;101985.81;;;2.51;100.00
22550;BME280;11441;57.164;-2.120;2022-12-07T00:24:31;101976.84;;;2.45;100.00
22550;BME280;11441;57.164;-2.120;2022-12-07T00:26:58;101977.38;;;2.47;100.00
22550;BME280;11441;57.164;-2.120;2022-12-07T00:29:25;101974.38;;;2.43;100.00
22550;BME280;11441;57.164;-2.120;2022-12-07T00:32:10;101968.94;;;2.43;100.00
22550;BME280;11441;57.164;-2.120;2022-12-07T00:34:37;101971.13;;;2.47;100.00
22550;BME280;11441;57.164;-2.120;2022-12-07T00:37:04;101968.66;;;2.35;100.00
22550;BME280;11441;57.164;-2.120;2022-12-07T00:39:31;101973.31;;;2.39;100.00
22550;BME280;11441;57.164;-2.120;2022-12-07T00:42:34;101973.31;;;2.50;100.00
22550;BME280;11441;57.164;-2.120;2022-12-07T00:45:01;101967.63;;;2.51;100.00
22550;BME280;11441;57.164;-2.120;2022-12-07T00:47:28;101965.16;;;2.50;100.00
22550;BME280;11441;57.164;-2.120;2022-12-07T00:49:54;101976.31;;;2.48;100.00
22550;BME280;11441;57.164;-2.120;2022-12-07T00:52:21;101976.59;;;2.52;100.00
22550;BME280;11441;57.164;-2.120;2022-12-07T00:54:48;101969.50;;;2.51;100.00
22550;BME280;11441;57.164;-2.120;2022-12-07T00:57:32;101969.78;;;2.54;100.00
22550;BME280;11441;57.164;-2.120;2022-12-07T00:59:59;101962.44;;;2.39;100.00
22550;BME280;11441;57.164;-2.120;2022-12-07T01:02:27;101963.25;;;2.50;100.00
22550;BME280;11441;57.164;-2.120;2022-12-07T01:04:54;101952.38;;;2.55;100.00
22550;BME280;11441;57.164;-2.120;2022-12-07T01:07:21;101956.47;;;2.53;100.00
22550;BME280;11441;57.164;-2.120;2022-12-07T01:09:47;101954.56;;;2.48;100.00
22550;BME280;11441;57.164;-2.120;2022-12-07T01:12:14;101947.22;;;2.64;100.00
22550;BME280;11441;57.164;-2.120;2022-12-07T01:14:41;101942.88;;;2.58;100.00
22550;BME280;11441;57.164;-2.120;2022-12-07T01:17:08;101928.44;;;2.62;100.00
22550;BME280;11441;57.164;-2.120;2022-12-07T01:19:35;101933.06;;;2.57;100.00
22550;BME280;11441;57.164;-2.120;2022-12-07T01:22:02;101938.78;;;2.66;100.00
22550;BME280;11441;57.164;-2.120;2022-12-07T01:24:29;101939.06;;;2.54;100.00
22550;BME280;11441;57.164;-2.120;2022-12-07T01:26:56;101936.88;;;2.56;100.00
22550;BME280;11441;57.164;-2.120;2022-12-07T01:29:22;101939.31;;;2.52;100.00
22550;BME280;11441;57.164;-2.120;2022-12-07T01:31:49;101935.53;;;2.53;100.00
22550;BME280;11441;57.164;-2.120;2022-12-07T01:34:35;101924.91;;;2.47;100.00
22550;BME280;11441;57.164;-2.120;2022-12-07T01:37:02;101922.47;;;2.50;100.00
22550;BME280;11441;57.164;-2.120;2022-12-07T01:39:29;101920.28;;;2.47;100.00
22550;BME280;11441;57.164;-2.120;2022-12-07T01:42:14;101922.47;;;2.55;100.00
22550;BME280;11441;57.164;-2.120;2022-12-07T01:47:55;101909.94;;;2.54;100.00
22550;BME280;11441;57.164;-2.120;2022-12-07T01:50:25;101923.84;;;2.58;100.00
22550;BME280;11441;57.164;-2.120;2022-12-07T01:52:55;101912.97;;;2.63;100.00
22550;BME280;11441;57.164;-2.120;2022-12-07T01:55:24;101921.09;;;2.68;100.00
22550;BME280;11441;57.164;-2.120;2022-12-07T01:57:53;101925.47;;;2.64;100.00
22550;BME280;11441;57.164;-2.120;2022-12-07T02:00:21;101919.47;;;2.67;100.00
22550;BME280;11441;57.164;-2.120;2022-12-07T02:03:01;101916.75;;;2.77;100.00
22550;BME280;11441;57.164;-2.120;2022-12-07T02:05:31;101920.03;;;2.74;100.00
22550;BME280;11441;57.164;-2.120;2022-12-07T02:07:58;101904.50;;;2.80;100.00
22550;BME280;11441;57.164;-2.120;2022-12-07T02:10:28;101900.44;;;2.77;100.00
22550;BME280;11441;57.164;-2.120;2022-12-07T02:13:06;101896.06;;;2.92;100.00
22550;BME280;11441;57.164;-2.120;2022-12-07T02:26:50;101906.41;;;2.85;100.00
22550;BME280;11441;57.164;-2.120;2022-12-07T02:29:37;101890.06;;;3.00;100.00
22550;BME280;11441;57.164;-2.120;2022-12-07T02:32:22;101891.16;;;2.83;100.00
22550;BME280;11441;57.164;-2.120;2022-12-07T02:35:06;101880.59;;;2.72;100.00
22550;BME280;11441;57.164;-2.120;2022-12-07T02:40:43;101884.38;;;2.86;100.00
22550;BME280;11441;57.164;-2.120;2022-12-07T02:43:17;101876.50;;;2.85;100.00
22550;BME280;11441;57.164;-2.120;2022-12-07T02:45:45;101884.91;;;2.83;100.00
22550;BME280;11441;57.164;-2.120;2022-12-07T02:48:16;101877.28;;;3.00;100.00
22550;BME280;11441;57.164;-2.120;2022-12-07T02:50:49;101879.44;;;3.19;100.00
22550;BME280;11441;57.164;-2.120;2022-12-07T02:56:39;101877.53;;;3.09;100.00
22550;BME280;11441;57.164;-2.120;2022-12-07T03:11:08;101858.97;;;3.21;100.00
22550;BME280;11441;57.164;-2.120;2022-12-07T03:18:38;101871.81;;;3.11;100.00
22550;BME280;11441;57.164;-2.120;2022-12-07T03:21:11;101876.97;;;3.17;100.00
22550;BME280;11441;57.164;-2.120;2022-12-07T03:23:42;101895.50;;;3.20;100.00
22550;BME280;11441;57.164;-2.120;2022-12-07T03:26:13;101890.63;;;2.87;100.00
22550;BME280;11441;57.164;-2.120;2022-12-07T03:28:49;101860.69;;;2.92;100.00
22550;BME280;11441;57.164;-2.120;2022-12-07T03:31:24;101868.31;;;2.90;100.00
22550;BME280;11441;57.164;-2.120;2022-12-07T03:34:06;101867.78;;;2.77;100.00
22550;BME280;11441;57.164;-2.120;2022-12-07T03:36:55;101866.41;;;2.64;100.00
22550;BME280;11441;57.164;-2.120;2022-12-07T03:39:29;101862.34;;;2.47;100.00
22550;BME280;11441;57.164;-2.120;2022-12-07T03:41:59;101874.88;;;2.48;100.00
22550;BME280;11441;57.164;-2.120;2022-12-07T03:44:28;101875.69;;;2.63;100.00
22550;BME280;11441;57.164;-2.120;2022-12-07T03:47:05;101867.78;;;2.62;100.00
22550;BME280;11441;57.164;-2.120;2022-12-07T03:49:44;101886.31;;;2.60;100.00
22550;BME280;11441;57.164;-2.120;2022-12-07T03:52:21;101873.75;;;2.43;100.00
22550;BME280;11441;57.164;-2.120;2022-12-07T03:57:56;101836.22;;;2.56;100.00
22550;BME280;11441;57.164;-2.120;2022-12-07T04:00:25;101836.81;;;2.42;100.00
22550;BME280;11441;57.164;-2.120;2022-12-07T04:02:53;101829.44;;;2.69;100.00
22550;BME280;11441;57.164;-2.120;2022-12-07T04:05:20;101837.06;;;2.61;100.00
22550;BME280;11441;57.164;-2.120;2022-12-07T04:07:47;101832.72;;;2.60;100.00
22550;BME280;11441;57.164;-2.120;2022-12-07T04:10:14;101822.09;;;2.49;100.00
22550;BME280;11441;57.164;-2.120;2022-12-07T04:12:41;101827.25;;;2.60;100.00
22550;BME280;11441;57.164;-2.120;2022-12-07T04:15:08;101835.41;;;2.60;100.00
22550;BME280;11441;57.164;-2.120;2022-12-07T04:17:35;101828.91;;;2.67;100.00
22550;BME280;11441;57.164;-2.120;2022-12-07T04:20:03;101831.34;;;2.63;100.00
22550;BME280;11441;57.164;-2.120;2022-12-07T04:22:31;101827.53;;;2.64;100.00
22550;BME280;11441;57.164;-2.120;2022-12-07T04:25:16;101833.25;;;2.47;100.00
22550;BME280;11441;57.164;-2.120;2022-12-07T04:27:43;101832.72;;;2.35;100.00
22550;BME280;11441;57.164;-2.120;2022-12-07T04:30:10;101812.59;;;2.51;100.00
22550;BME280;11441;57.164;-2.120;2022-12-07T04:32:37;101814.75;;;2.59;100.00
22550;BME280;11441;57.164;-2.120;2022-12-07T04:35:04;101813.66;;;2.50;100.00
22550;BME280;11441;57.164;-2.120;2022-12-07T04:37:31;101804.16;;;2.48;100.00
22550;BME280;11441;57.164;-2.120;2022-12-07T04:39:58;101816.66;;;2.54;100.00
22550;BME280;11441;57.164;-2.120;2022-12-07T04:42:25;101808.50;;;2.64;100.00
22550;BME280;11441;57.164;-2.120;2022-12-07T04:44:52;101802.25;;;2.58;100.00
22550;BME280;11441;57.164;-2.120;2022-12-07T04:47:19;101793.25;;;2.68;100.00
22550;BME280;11441;57.164;-2.120;2022-12-07T04:49:46;101790.50;;;2.68;100.00
22550;BME280;11441;57.164;-2.120;2022-12-07T04:52:32;101789.72;;;2.68;100.00
22550;BME280;11441;57.164;-2.120;2022-12-07T04:55:17;101799.81;;;2.47;100.00
22550;BME280;11441;57.164;-2.120;2022-12-07T04:57:44;101797.34;;;2.50;100.00
22550;BME280;11441;57.164;-2.120;2022-12-07T05:00:12;101797.34;;;2.50;100.00
22550;BME280;11441;57.164;-2.120;2022-12-07T05:02:38;101790.81;;;2.72;100.00
22550;BME280;11441;57.164;-2.120;2022-12-07T05:05:05;101800.34;;;2.54;100.00
22550;BME280;11441;57.164;-2.120;2022-12-07T05:07:32;101794.34;;;2.57;100.00
22550;BME280;11441;57.164;-2.120;2022-12-07T05:09:59;101790.00;;;2.61;100.00
22550;BME280;11441;57.164;-2.120;2022-12-07T05:12:26;101800.88;;;2.56;100.00
22550;BME280;11441;57.164;-2.120;2022-12-07T05:14:53;101804.44;;;2.51;100.00
22550;BME280;11441;57.164;-2.120;2022-12-07T05:17:20;101797.88;;;2.62;100.00
22550;BME280;11441;57.164;-2.120;2022-12-07T05:19:47;101801.72;;;2.56;100.00
22550;BME280;11441;57.164;-2.120;2022-12-07T05:22:14;101809.03;;;2.45;100.00
22550;BME280;11441;57.164;-2.120;2022-12-07T05:24:41;101794.38;;;2.52;100.00
22550;BME280;11441;57.164;-2.120;2022-12-07T05:27:08;101785.41;;;2.46;100.00
22550;BME280;11441;57.164;-2.120;2022-12-07T05:29:35;101785.13;;;2.48;100.00
22550;BME280;11441;57.164;-2.120;2022-12-07T05:32:02;101775.59;;;2.55;100.00
22550;BME280;11441;57.164;-2.120;2022-12-07T05:34:29;101773.94;;;2.54;100.00
22550;BME280;11441;57.164;-2.120;2022-12-07T05:36:56;101764.19;;;2.48;100.00
22550;BME280;11441;57.164;-2.120;2022-12-07T05:39:23;101767.16;;;2.57;100.00
22550;BME280;11441;57.164;-2.120;2022-12-07T05:41:50;101766.88;;;2.58;100.00
22550;BME280;11441;57.164;-2.120;2022-12-07T05:44:35;101768.50;;;2.59;100.00
22550;BME280;11441;57.164;-2.120;2022-12-07T05:47:02;101778.31;;;2.45;100.00
22550;BME280;11441;57.164;-2.120;2022-12-07T05:49:29;101772.59;;;2.47;100.00
22550;BME280;11441;57.164;-2.120;2022-12-07T05:51:56;101761.44;;;2.63;100.00
22550;BME280;11441;57.164;-2.120;2022-12-07T05:54:40;101765.50;;;2.61;100.00
22550;BME280;11441;57.164;-2.120;2022-12-07T05:57:24;101765.50;;;2.56;100.00
22550;BME280;11441;57.164;-2.120;2022-12-07T05:59:51;101760.66;;;2.53;100.00
22550;BME280;11441;57.164;-2.120;2022-12-07T06:02:18;101757.59;;;2.64;100.00
22550;BME280;11441;57.164;-2.120;2022-12-07T06:04:46;101755.72;;;2.70;100.00
22550;BME280;11441;57.164;-2.120;2022-12-07T06:07:15;101736.16;;;2.58;100.00
22550;BME280;11441;57.164;-2.120;2022-12-07T06:09:42;101744.81;;;2.75;100.00
22550;BME280;11441;57.164;-2.120;2022-12-07T06:12:11;101748.63;;;2.69;100.00
22550;BME280;11441;57.164;-2.120;2022-12-07T06:14:57;101741.53;;;2.78;100.00
22550;BME280;11441;57.164;-2.120;2022-12-07T06:17:41;101736.09;;;2.73;100.00
22550;BME280;11441;57.164;-2.120;2022-12-07T06:20:08;101745.91;;;2.69;100.00
22550;BME280;11441;57.164;-2.120;2022-12-07T06:22:35;101749.19;;;2.61;100.00
22550;BME280;11441;57.164;-2.120;2022-12-07T06:25:02;101735.59;;;2.56;100.00
22550;BME280;11441;57.164;-2.120;2022-12-07T06:27:34;101735.06;;;2.54;100.00
22550;BME280;11441;57.164;-2.120;2022-12-07T06:30:02;101725.03;;;2.44;100.00
22550;BME280;11441;57.164;-2.120;2022-12-07T06:32:33;101723.91;;;2.50;100.00
22550;BME280;11441;57.164;-2.120;2022-12-07T06:35:00;101716.25;;;2.68;100.00
22550;BME280;11441;57.164;-2.120;2022-12-07T06:37:27;101724.72;;;2.56;100.00
22550;BME280;11441;57.164;-2.120;2022-12-07T06:39:54;101727.19;;;2.52;100.00
22550;BME280;11441;57.164;-2.120;2022-12-07T06:42:21;101728.81;;;2.53;100.00
22550;BME280;11441;57.164;-2.120;2022-12-07T06:44:48;101722.28;;;2.54;100.00
22550;BME280;11441;57.164;-2.120;2022-12-07T06:47:33;101730.75;;;2.48;100.00
22550;BME280;11441;57.164;-2.120;2022-12-07T06:50:09;101732.59;;;2.62;100.00
22550;BME280;11441;57.164;-2.120;2022-12-07T06:52:36;101728.03;;;2.48;100.00
22550;BME280;11441;57.164;-2.120;2022-12-07T06:55:03;101726.38;;;2.41;100.00
22550;BME280;11441;57.164;-2.120;2022-12-07T06:57:48;101726.41;;;2.36;100.00
22550;BME280;11441;57.164;-2.120;2022-12-07T07:00:16;101709.56;;;2.19;100.00
22550;BME280;11441;57.164;-2.120;2022-12-07T07:02:48;101728.03;;;2.27;100.00
22550;BME280;11441;57.164;-2.120;2022-12-07T07:05:15;101722.88;;;2.25;100.00
22550;BME280;11441;57.164;-2.120;2022-12-07T07:07:43;101711.75;;;2.12;100.00
22550;BME280;11441;57.164;-2.120;2022-12-07T07:10:30;101709.28;;;2.15;100.00
22550;BME280;11441;57.164;-2.120;2022-12-07T07:12:57;101719.38;;;1.99;100.00
22550;BME280;11441;57.164;-2.120;2022-12-07T07:15:24;101716.66;;;1.94;100.00
22550;BME280;11441;57.164;-2.120;2022-12-07T07:17:50;101728.31;;;1.95;100.00
22550;BME280;11441;57.164;-2.120;2022-12-07T07:20:17;101707.69;;;1.83;100.00
22550;BME280;11441;57.164;-2.120;2022-12-07T07:22:45;101726.16;;;2.02;100.00
22550;BME280;11441;57.164;-2.120;2022-12-07T07:25:11;101701.72;;;1.86;100.00
22550;BME280;11441;57.164;-2.120;2022-12-07T07:27:57;101700.88;;;1.81;100.00
22550;BME280;11441;57.164;-2.120;2022-12-07T07:30:25;101709.56;;;1.93;100.00
22550;BME280;11441;57.164;-2.120;2022-12-07T07:32:59;101701.41;;;1.88;100.00
22550;BME280;11441;57.164;-2.120;2022-12-07T07:35:27;101708.22;;;1.85;100.00
22550;BME280;11441;57.164;-2.120;2022-12-07T07:38:12;101686.22;;;2.07;100.00
22550;BME280;11441;57.164;-2.120;2022-12-07T07:40:39;101691.38;;;1.83;100.00
22550;BME280;11441;57.164;-2.120;2022-12-07T07:43:06;101686.75;;;1.89;100.00
22550;BME280;11441;57.164;-2.120;2022-12-07T07:45:33;101695.72;;;1.89;100.00
22550;BME280;11441;57.164;-2.120;2022-12-07T07:48:00;101699.81;;;1.97;100.00
22550;BME280;11441;57.164;-2.120;2022-12-07T07:50:26;101690.28;;;1.84;100.00
22550;BME280;11441;57.164;-2.120;2022-12-07T07:52:53;101689.72;;;2.13;100.00
22550;BME280;11441;57.164;-2.120;2022-12-07T07:55:20;101698.69;;;1.93;100.00
22550;BME280;11441;57.164;-2.120;2022-12-07T07:57:47;101691.66;;;1.97;100.00
22550;BME280;11441;57.164;-2.120;2022-12-07T08:00:20;101673.72;;;2.01;100.00
22550;BME280;11441;57.164;-2.120;2022-12-07T08:02:47;101685.66;;;2.11;100.00
22550;BME280;11441;57.164;-2.120;2022-12-07T08:05:15;101680.78;;;2.07;100.00
22550;BME280;11441;57.164;-2.120;2022-12-07T08:07:42;101691.66;;;2.13;100.00
22550;BME280;11441;57.164;-2.120;2022-12-07T08:10:11;101686.47;;;2.26;100.00
22550;BME280;11441;57.164;-2.120;2022-12-07T08:12:40;101685.38;;;2.22;100.00
22550;BME280;11441;57.164;-2.120;2022-12-07T08:15:30;101683.19;;;2.24;100.00
22550;BME280;11441;57.164;-2.120;2022-12-07T08:18:16;101690.25;;;2.31;100.00
22550;BME280;11441;57.164;-2.120;2022-12-07T08:20:42;101691.06;;;2.31;100.00
22550;BME280;11441;57.164;-2.120;2022-12-07T08:23:10;101672.03;;;2.26;100.00
22550;BME280;11441;57.164;-2.120;2022-12-07T08:25:37;101682.09;;;2.20;100.00
22550;BME280;11441;57.164;-2.120;2022-12-07T08:28:21;101681.84;;;2.17;100.00
22550;BME280;11441;57.164;-2.120;2022-12-07T08:30:48;101679.13;;;2.12;100.00
22550;BME280;11441;57.164;-2.120;2022-12-07T08:33:15;101675.34;;;2.07;100.00
22550;BME280;11441;57.164;-2.120;2022-12-07T08:35:42;101664.47;;;2.18;100.00
22550;BME280;11441;57.164;-2.120;2022-12-07T08:38:09;101659.31;;;2.06;100.00
22550;BME280;11441;57.164;-2.120;2022-12-07T08:40:36;101648.44;;;2.06;100.00
22550;BME280;11441;57.164;-2.120;2022-12-07T08:43:02;101640.03;;;2.02;100.00
22550;BME280;11441;57.164;-2.120;2022-12-07T08:45:29;101646.78;;;2.05;100.00
22550;BME280;11441;57.164;-2.120;2022-12-07T08:48:05;101648.72;;;1.94;100.00
22550;BME280;11441;57.164;-2.120;2022-12-07T08:50:34;101631.34;;;1.95;100.00
22550;BME280;11441;57.164;-2.120;2022-12-07T08:53:04;101638.91;;;2.14;100.00
22550;BME280;11441;57.164;-2.120;2022-12-07T08:55:33;101635.38;;;2.18;100.00
22550;BME280;11441;57.164;-2.120;2022-12-07T08:58:02;101635.13;;;1.99;100.00
22550;BME280;11441;57.164;-2.120;2022-12-07T09:00:29;101641.63;;;2.03;100.00
22550;BME280;11441;57.164;-2.120;2022-12-07T09:02:56;101636.72;;;2.05;100.00
22550;BME280;11441;57.164;-2.120;2022-12-07T09:05:23;101634.06;;;2.00;100.00
22550;BME280;11441;57.164;-2.120;2022-12-07T09:07:51;101639.69;;;2.14;100.00
22550;BME280;11441;57.164;-2.120;2022-12-07T09:10:38;101644.34;;;2.08;100.00
22550;BME280;11441;57.164;-2.120;2022-12-07T09:13:05;101638.34;;;2.17;100.00
22550;BME280;11441;57.164;-2.120;2022-12-07T09:15:31;101633.44;;;2.19;100.00
22550;BME280;11441;57.164;-2.120;2022-12-07T09:17:58;101623.97;;;2.06;100.00
22550;BME280;11441;57.164;-2.120;2022-12-07T09:20:44;101638.34;;;2.22;100.00
22550;BME280;11441;57.164;-2.120;2022-12-07T09:23:29;101631.84;;;2.13;100.00
22550;BME280;11441;57.164;-2.120;2022-12-07T09:26:00;101619.06;;;2.18;100.00
22550;BME280;11441;57.164;-2.120;2022-12-07T09:28:33;101628.00;;;2.24;100.00
22550;BME280;11441;57.164;-2.120;2022-12-07T09:31:19;101638.88;;;2.29;100.00
22550;BME280;11441;57.164;-2.120;2022-12-07T09:34:09;101633.72;;;2.22;100.00
22550;BME280;11441;57.164;-2.120;2022-12-07T09:36:54;101644.84;;;2.26;100.00
22550;BME280;11441;57.164;-2.120;2022-12-07T09:39:21;101644.31;;;2.24;100.00
22550;BME280;11441;57.164;-2.120;2022-12-07T09:41:49;101635.09;;;2.20;100.00
22550;BME280;11441;57.164;-2.120;2022-12-07T09:44:24;101628.53;;;2.26;100.00
22550;BME280;11441;57.164;-2.120;2022-12-07T09:46:52;101621.22;;;2.26;100.00
22550;BME280;11441;57.164;-2.120;2022-12-07T09:49:21;101616.84;;;2.31;100.00
22550;BME280;11441;57.164;-2.120;2022-12-07T09:52:26;101619.56;;;2.31;100.00
22550;BME280;11441;57.164;-2.120;2022-12-07T09:55:00;101623.13;;;2.21;100.00
22550;BME280;11441;57.164;-2.120;2022-12-07T09:57:31;101612.50;;;2.24;100.00
22550;BME280;11441;57.164;-2.120;2022-12-07T10:00:02;101610.59;;;2.35;100.00
22550;BME280;11441;57.164;-2.120;2022-12-07T10:02:39;101621.38;;;2.56;100.00
22550;BME280;11441;57.164;-2.120;2022-12-07T10:05:18;101621.38;;;2.51;100.00
22550;BME280;11441;57.164;-2.120;2022-12-07T10:07:50;101612.97;;;2.47;100.00
22550;BME280;11441;57.164;-2.120;2022-12-07T10:10:25;101619.72;;;2.65;100.00
22550;BME280;11441;57.164;-2.120;2022-12-07T10:13:21;101625.63;;;2.77;100.00
22550;BME280;11441;57.164;-2.120;2022-12-07T10:15:55;101622.41;;;2.70;100.00
22550;BME280;11441;57.164;-2.120;2022-12-07T10:18:37;101621.31;;;2.71;100.00
22550;BME280;11441;57.164;-2.120;2022-12-07T10:23:36;101622.19;;;2.56;100.00
22550;BME280;11441;57.164;-2.120;2022-12-07T10:28:46;101614.31;;;2.55;100.00
22550;BME280;11441;57.164;-2.120;2022-12-07T10:31:17;101612.72;;;2.38;100.00
22550;BME280;11441;57.164;-2.120;2022-12-07T10:33:57;101600.63;;;1.89;100.00
22550;BME280;11441;57.164;-2.120;2022-12-07T10:36:37;101596.28;;;1.94;100.00
22550;BME280;11441;57.164;-2.120;2022-12-07T10:39:16;101571.81;;;2.04;100.00
22550;BME280;11441;57.164;-2.120;2022-12-07T10:42:02;101565.50;;;2.14;100.00
22550;BME280;11441;57.164;-2.120;2022-12-07T10:44:31;101561.69;;;2.20;100.00
22550;BME280;11441;57.164;-2.120;2022-12-07T11:01:24;101536.84;;;2.42;100.00
22550;BME280;11441;57.164;-2.120;2022-12-07T11:03:59;101545.59;;;2.34;100.00
22550;BME280;11441;57.164;-2.120;2022-12-07T11:07:17;101543.53;;;2.70;100.00
22550;BME280;11441;57.164;-2.120;2022-12-07T11:18:50;101515.28;;;2.56;100.00
22550;BME280;11441;57.164;-2.120;2022-12-07T11:21:42;101516.91;;;2.62;100.00
22550;BME280;11441;57.164;-2.120;2022-12-07T11:33:15;101507.06;;;2.66;100.00
22550;BME280;11441;57.164;-2.120;2022-12-07T11:36:02;101509.25;;;2.69;100.00
22550;BME280;11441;57.164;-2.120;2022-12-07T11:38:57;101491.47;;;2.82;100.00
22550;BME280;11441;57.164;-2.120;2022-12-07T11:41:35;101491.97;;;2.89;100.00
22550;BME280;11441;57.164;-2.120;2022-12-07T11:44:11;101483.22;;;2.92;100.00
22550;BME280;11441;57.164;-2.120;2022-12-07T11:46:55;101478.56;;;2.98;100.00
22550;BME280;11441;57.164;-2.120;2022-12-07T11:49:42;101478.59;;;2.93;100.00
22550;BME280;11441;57.164;-2.120;2022-12-07T11:54:57;101472.69;;;3.15;100.00
22550;BME280;11441;57.164;-2.120;2022-12-07T11:57:33;101469.06;;;3.25;100.00
22550;BME280;11441;57.164;-2.120;2022-12-07T12:00:05;101467.47;;;3.18;100.00
22550;BME280;11441;57.164;-2.120;2022-12-07T12:02:43;101461.03;;;3.38;100.00
22550;BME280;11441;57.164;-2.120;2022-12-07T12:05:17;101458.50;;;3.18;100.00
22550;BME280;11441;57.164;-2.120;2022-12-07T12:07:46;101459.13;;;3.10;100.00
22550;BME280;11441;57.164;-2.120;2022-12-07T12:11:08;101454.94;;;3.23;100.00
22550;BME280;11441;57.164;-2.120;2022-12-07T12:13:54;101464.44;;;3.25;100.00
22550;BME280;11441;57.164;-2.120;2022-12-07T12:19:24;101453.53;;;3.25;100.00
22550;BME280;11441;57.164;-2.120;2022-12-07T12:21:59;101454.41;;;3.20;100.00
22550;BME280;11441;57.164;-2.120;2022-12-07T12:24:51;101444.94;;;3.13;100.00
22550;BME280;11441;57.164;-2.120;2022-12-07T12:27:29;101437.03;;;3.16;100.00
22550;BME280;11441;57.164;-2.120;2022-12-07T12:30:00;101433.53;;;3.11;100.00
22550;BME280;11441;57.164;-2.120;2022-12-07T12:32:41;101440.47;;;2.98;100.00
22550;BME280;11441;57.164;-2.120;2022-12-07T12:38:33;101445.22;;;3.11;100.00
22550;BME280;11441;57.164;-2.120;2022-12-07T12:47:37;101441.91;;;3.19;100.00
22550;BME280;11441;57.164;-2.120;2022-12-07T12:49:41;101438.84;;;3.26;100.00
22550;BME280;11441;57.164;-2.120;2022-12-07T12:55:00;101431.44;;;3.32;100.00
22550;BME280;11441;57.164;-2.120;2022-12-07T12:57:31;101421.94;;;3.29;100.00
22550;BME280;11441;57.164;-2.120;2022-12-07T12:59:59;101425.19;;;3.31;100.00
22550;BME280;11441;57.164;-2.120;2022-12-07T13:02:36;101421.22;;;3.43;100.00
22550;BME280;11441;57.164;-2.120;2022-12-07T13:15:48;101409.38;;;3.57;100.00
22550;BME280;11441;57.164;-2.120;2022-12-07T13:29:16;101404.94;;;2.84;100.00
22550;BME280;11441;57.164;-2.120;2022-12-07T13:31:45;101400.75;;;2.62;100.00
22550;BME280;11441;57.164;-2.120;2022-12-07T13:34:36;101392.06;;;2.60;100.00
22550;BME280;11441;57.164;-2.120;2022-12-07T13:39:47;101376.59;;;2.56;100.00
22550;BME280;11441;57.164;-2.120;2022-12-07T13:42:34;101364.72;;;2.47;100.00
22550;BME280;11441;57.164;-2.120;2022-12-07T13:45:21;101361.75;;;2.43;100.00
22550;BME280;11441;57.164;-2.120;2022-12-07T13:48:24;101358.88;;;2.63;100.00
22550;BME280;11441;57.164;-2.120;2022-12-07T13:50:56;101351.38;;;2.79;100.00
22550;BME280;11441;57.164;-2.120;2022-12-07T13:53:24;101347.69;;;2.65;100.00
22550;BME280;11441;57.164;-2.120;2022-12-07T13:55:58;101339.44;;;2.75;100.00
22550;BME280;11441;57.164;-2.120;2022-12-07T13:58:27;101338.09;;;2.73;100.00
22550;BME280;11441;57.164;-2.120;2022-12-07T14:00:56;101340.53;;;2.74;100.00
22550;BME280;11441;57.164;-2.120;2022-12-07T14:03:32;101341.47;;;2.59;100.00
22550;BME280;11441;57.164;-2.120;2022-12-07T14:06:27;101342.50;;;2.69;100.00
22550;BME280;11441;57.164;-2.120;2022-12-07T14:09:21;101343.50;;;2.78;100.00
22550;BME280;11441;57.164;-2.120;2022-12-07T14:11:50;101332.03;;;2.81;100.00
22550;BME280;11441;57.164;-2.120;2022-12-07T14:14:21;101322.28;;;2.75;100.00
22550;BME280;11441;57.164;-2.120;2022-12-07T14:17:09;101326.03;;;2.84;100.00
22550;BME280;11441;57.164;-2.120;2022-12-07T14:22:36;101336.00;;;2.94;100.00
22550;BME280;11441;57.164;-2.120;2022-12-07T14:27:48;101337.66;;;2.60;100.00
22550;BME280;11441;57.164;-2.120;2022-12-07T14:30:16;101328.34;;;2.37;100.00
22550;BME280;11441;57.164;-2.120;2022-12-07T14:32:44;101329.41;;;2.41;100.00
22550;BME280;11441;57.164;-2.120;2022-12-07T14:35:17;101321.59;;;2.30;100.00
22550;BME280;11441;57.164;-2.120;2022-12-07T14:37:46;101308.13;;;2.49;100.00
22550;BME280;11441;57.164;-2.120;2022-12-07T14:40:22;101299.44;;;2.47;100.00
22550;BME280;11441;57.164;-2.120;2022-12-07T14:42:54;101297.16;;;2.24;100.00
22550;BME280;11441;57.164;-2.120;2022-12-07T14:45:41;101291.78;;;2.19;100.00
22550;BME280;11441;57.164;-2.120;2022-12-07T14:48:13;101300.91;;;1.99;100.00
22550;BME280;11441;57.164;-2.120;2022-12-07T14:51:00;101287.72;;;2.17;100.00
22550;BME280;11441;57.164;-2.120;2022-12-07T14:53:50;101295.28;;;2.25;100.00
22550;BME280;11441;57.164;-2.120;2022-12-07T14:56:23;101282.06;;;2.13;100.00
22550;BME280;11441;57.164;-2.120;2022-12-07T14:58:49;101286.25;;;2.00;100.00
22550;BME280;11441;57.164;-2.120;2022-12-07T15:01:16;101282.44;;;1.96;100.00
22550;BME280;11441;57.164;-2.120;2022-12-07T15:03:43;101273.22;;;1.97;100.00
22550;BME280;11441;57.164;-2.120;2022-12-07T15:06:15;101256.66;;;1.94;100.00
22550;BME280;11441;57.164;-2.120;2022-12-07T15:08:42;101260.41;;;2.03;100.00
22550;BME280;11441;57.164;-2.120;2022-12-07T15:11:15;101262.59;;;2.01;100.00
22550;BME280;11441;57.164;-2.120;2022-12-07T15:13:42;101255.00;;;1.98;100.00
22550;BME280;11441;57.164;-2.120;2022-12-07T15:16:28;101250.81;;;2.11;100.00